<?xml version="1.0" encoding="UTF-8" standalone="no" ?>
<gpx xmlns="http://www.topografix.com/GPX/1/1" xmlns:xsi="http://www.w3.org/2001/XMLSchema-instance" xsi:schemaLocation="http://www.topografix.com/GPX/1/1 http://www.topografix.com/GPX/1/1/gpx.xsd" version="1.1" creator="VisuGPX - https://www.visugpx.com">
  <metadata>
    <name>Vacances 2021</name>
  </metadata>
  <trk>
    <name><![CDATA[Journal actif: 2021-07-20 16:15]]></name>
    <trkseg>
      <trkpt lat="48.99323" lon="7.7936">
        <ele>234.7</ele>
        <time>2021-07-20T18:15:45Z</time>
      </trkpt>
      <trkpt lat="48.99314" lon="7.79361">
        <ele>234.7</ele>
        <time>2021-07-20T18:17:02Z</time>
      </trkpt>
      <trkpt lat="48.99311" lon="7.79355">
        <ele>234.7</ele>
        <time>2021-07-20T18:17:04Z</time>
      </trkpt>
      <trkpt lat="48.99309" lon="7.7935">
        <ele>234.22</ele>
        <time>2021-07-20T18:17:05Z</time>
      </trkpt>
      <trkpt lat="48.99306" lon="7.79344">
        <ele>234.22</ele>
        <time>2021-07-20T18:17:06Z</time>
      </trkpt>
      <trkpt lat="48.99295" lon="7.79314">
        <ele>232.78</ele>
        <time>2021-07-20T18:17:10Z</time>
      </trkpt>
      <trkpt lat="48.99292" lon="7.79306">
        <ele>232.3</ele>
        <time>2021-07-20T18:17:11Z</time>
      </trkpt>
      <trkpt lat="48.99282" lon="7.79159">
        <ele>221.72</ele>
        <time>2021-07-20T18:17:23Z</time>
      </trkpt>
      <trkpt lat="48.99283" lon="7.79091">
        <ele>210.67</ele>
        <time>2021-07-20T18:17:33Z</time>
      </trkpt>
      <trkpt lat="48.99288" lon="7.78983">
        <ele>197.69</ele>
        <time>2021-07-20T18:17:49Z</time>
      </trkpt>
      <trkpt lat="48.99274" lon="7.78912">
        <ele>190.48</ele>
        <time>2021-07-20T18:18:00Z</time>
      </trkpt>
      <trkpt lat="48.99249" lon="7.78772">
        <ele>186.15</ele>
        <time>2021-07-20T18:18:10Z</time>
      </trkpt>
      <trkpt lat="48.99236" lon="7.78628">
        <ele>185.19</ele>
        <time>2021-07-20T18:18:19Z</time>
      </trkpt>
      <trkpt lat="48.99238" lon="7.78611">
        <ele>186.15</ele>
        <time>2021-07-20T18:18:20Z</time>
      </trkpt>
      <trkpt lat="48.99267" lon="7.7845">
        <ele>187.59</ele>
        <time>2021-07-20T18:18:31Z</time>
      </trkpt>
      <trkpt lat="48.99288" lon="7.78368">
        <ele>188.56</ele>
        <time>2021-07-20T18:18:39Z</time>
      </trkpt>
      <trkpt lat="48.99292" lon="7.78362">
        <ele>190</ele>
        <time>2021-07-20T18:18:40Z</time>
      </trkpt>
      <trkpt lat="48.99295" lon="7.78355">
        <ele>190.48</ele>
        <time>2021-07-20T18:18:41Z</time>
      </trkpt>
      <trkpt lat="48.99299" lon="7.78349">
        <ele>191.44</ele>
        <time>2021-07-20T18:18:42Z</time>
      </trkpt>
      <trkpt lat="48.99303" lon="7.78343">
        <ele>191.92</ele>
        <time>2021-07-20T18:18:43Z</time>
      </trkpt>
      <trkpt lat="48.99307" lon="7.78338">
        <ele>191.92</ele>
        <time>2021-07-20T18:18:44Z</time>
      </trkpt>
      <trkpt lat="48.99347" lon="7.78308">
        <ele>191.92</ele>
        <time>2021-07-20T18:18:55Z</time>
      </trkpt>
      <trkpt lat="48.99359" lon="7.78312">
        <ele>192.4</ele>
        <time>2021-07-20T18:19:04Z</time>
      </trkpt>
      <trkpt lat="48.99361" lon="7.78315">
        <ele>192.4</ele>
        <time>2021-07-20T18:19:05Z</time>
      </trkpt>
      <trkpt lat="48.99365" lon="7.7832">
        <ele>192.4</ele>
        <time>2021-07-20T18:19:06Z</time>
      </trkpt>
      <trkpt lat="48.99416" lon="7.78391">
        <ele>194.32</ele>
        <time>2021-07-20T18:19:17Z</time>
      </trkpt>
      <trkpt lat="48.9949" lon="7.7848">
        <ele>194.8</ele>
        <time>2021-07-20T18:19:29Z</time>
      </trkpt>
      <trkpt lat="48.99597" lon="7.78561">
        <ele>195.77</ele>
        <time>2021-07-20T18:19:41Z</time>
      </trkpt>
      <trkpt lat="48.99728" lon="7.78584">
        <ele>196.25</ele>
        <time>2021-07-20T18:19:54Z</time>
      </trkpt>
      <trkpt lat="48.99885" lon="7.78635">
        <ele>201.05</ele>
        <time>2021-07-20T18:20:08Z</time>
      </trkpt>
      <trkpt lat="49.0001" lon="7.78726">
        <ele>195.77</ele>
        <time>2021-07-20T18:20:20Z</time>
      </trkpt>
      <trkpt lat="49.00095" lon="7.78795">
        <ele>196.73</ele>
        <time>2021-07-20T18:20:29Z</time>
      </trkpt>
      <trkpt lat="49.00179" lon="7.78905">
        <ele>197.69</ele>
        <time>2021-07-20T18:20:41Z</time>
      </trkpt>
      <trkpt lat="49.00188" lon="7.78915">
        <ele>198.17</ele>
        <time>2021-07-20T18:20:42Z</time>
      </trkpt>
      <trkpt lat="49.00188" lon="7.78915">
        <ele>198.65</ele>
        <time>2021-07-20T18:20:43Z</time>
      </trkpt>
      <trkpt lat="49.00194" lon="7.78919">
        <ele>198.65</ele>
        <time>2021-07-20T18:20:44Z</time>
      </trkpt>
      <trkpt lat="49.00272" lon="7.78963">
        <ele>197.69</ele>
        <time>2021-07-20T18:20:56Z</time>
      </trkpt>
      <trkpt lat="49.00348" lon="7.78992">
        <ele>196.73</ele>
        <time>2021-07-20T18:21:08Z</time>
      </trkpt>
      <trkpt lat="49.0036" lon="7.79008">
        <ele>201.05</ele>
        <time>2021-07-20T18:21:16Z</time>
      </trkpt>
      <trkpt lat="49.00363" lon="7.79008">
        <ele>201.05</ele>
        <time>2021-07-20T18:21:17Z</time>
      </trkpt>
      <trkpt lat="49.00366" lon="7.79008">
        <ele>201.05</ele>
        <time>2021-07-20T18:21:18Z</time>
      </trkpt>
      <trkpt lat="49.00378" lon="7.78999">
        <ele>200.57</ele>
        <time>2021-07-20T18:21:20Z</time>
      </trkpt>
      <trkpt lat="49.00383" lon="7.79">
        <ele>200.09</ele>
        <time>2021-07-20T18:21:21Z</time>
      </trkpt>
      <trkpt lat="49.00459" lon="7.79016">
        <ele>200.09</ele>
        <time>2021-07-20T18:21:32Z</time>
      </trkpt>
      <trkpt lat="49.00576" lon="7.78984">
        <ele>204.42</ele>
        <time>2021-07-20T18:21:47Z</time>
      </trkpt>
      <trkpt lat="49.00719" lon="7.78939">
        <ele>200.57</ele>
        <time>2021-07-20T18:22:04Z</time>
      </trkpt>
      <trkpt lat="49.00839" lon="7.78901">
        <ele>199.13</ele>
        <time>2021-07-20T18:22:17Z</time>
      </trkpt>
      <trkpt lat="49.00983" lon="7.78851">
        <ele>203.94</ele>
        <time>2021-07-20T18:22:32Z</time>
      </trkpt>
      <trkpt lat="49.00991" lon="7.78846">
        <ele>204.42</ele>
        <time>2021-07-20T18:22:33Z</time>
      </trkpt>
      <trkpt lat="49.00999" lon="7.78837">
        <ele>205.38</ele>
        <time>2021-07-20T18:22:34Z</time>
      </trkpt>
      <trkpt lat="49.01012" lon="7.78819">
        <ele>205.86</ele>
        <time>2021-07-20T18:22:35Z</time>
      </trkpt>
      <trkpt lat="49.01012" lon="7.78819">
        <ele>205.38</ele>
        <time>2021-07-20T18:22:36Z</time>
      </trkpt>
      <trkpt lat="49.01018" lon="7.78806">
        <ele>205.86</ele>
        <time>2021-07-20T18:22:37Z</time>
      </trkpt>
      <trkpt lat="49.01091" lon="7.78698">
        <ele>205.38</ele>
        <time>2021-07-20T18:22:47Z</time>
      </trkpt>
      <trkpt lat="49.01208" lon="7.78543">
        <ele>205.86</ele>
        <time>2021-07-20T18:23:00Z</time>
      </trkpt>
      <trkpt lat="49.01331" lon="7.78366">
        <ele>207.3</ele>
        <time>2021-07-20T18:23:13Z</time>
      </trkpt>
      <trkpt lat="49.01331" lon="7.78366">
        <ele>206.82</ele>
        <time>2021-07-20T18:23:14Z</time>
      </trkpt>
      <trkpt lat="49.01343" lon="7.78335">
        <ele>206.82</ele>
        <time>2021-07-20T18:23:15Z</time>
      </trkpt>
      <trkpt lat="49.01347" lon="7.78317">
        <ele>206.82</ele>
        <time>2021-07-20T18:23:16Z</time>
      </trkpt>
      <trkpt lat="49.01347" lon="7.78317">
        <ele>206.82</ele>
        <time>2021-07-20T18:23:17Z</time>
      </trkpt>
      <trkpt lat="49.0135" lon="7.78298">
        <ele>206.82</ele>
        <time>2021-07-20T18:23:18Z</time>
      </trkpt>
      <trkpt lat="49.01354" lon="7.78279">
        <ele>206.82</ele>
        <time>2021-07-20T18:23:19Z</time>
      </trkpt>
      <trkpt lat="49.01356" lon="7.78261">
        <ele>206.82</ele>
        <time>2021-07-20T18:23:20Z</time>
      </trkpt>
      <trkpt lat="49.01373" lon="7.78054">
        <ele>208.74</ele>
        <time>2021-07-20T18:23:30Z</time>
      </trkpt>
      <trkpt lat="49.01386" lon="7.77985">
        <ele>210.67</ele>
        <time>2021-07-20T18:23:34Z</time>
      </trkpt>
      <trkpt lat="49.01389" lon="7.77969">
        <ele>210.67</ele>
        <time>2021-07-20T18:23:35Z</time>
      </trkpt>
      <trkpt lat="49.01394" lon="7.77957">
        <ele>210.67</ele>
        <time>2021-07-20T18:23:36Z</time>
      </trkpt>
      <trkpt lat="49.014" lon="7.77946">
        <ele>210.19</ele>
        <time>2021-07-20T18:23:37Z</time>
      </trkpt>
      <trkpt lat="49.01408" lon="7.77941">
        <ele>210.67</ele>
        <time>2021-07-20T18:23:38Z</time>
      </trkpt>
      <trkpt lat="49.01415" lon="7.77937">
        <ele>210.67</ele>
        <time>2021-07-20T18:23:39Z</time>
      </trkpt>
      <trkpt lat="49.01425" lon="7.77937">
        <ele>210.19</ele>
        <time>2021-07-20T18:23:40Z</time>
      </trkpt>
      <trkpt lat="49.01432" lon="7.77937">
        <ele>210.19</ele>
        <time>2021-07-20T18:23:41Z</time>
      </trkpt>
      <trkpt lat="49.01441" lon="7.77945">
        <ele>209.7</ele>
        <time>2021-07-20T18:23:42Z</time>
      </trkpt>
      <trkpt lat="49.01447" lon="7.7795">
        <ele>209.7</ele>
        <time>2021-07-20T18:23:43Z</time>
      </trkpt>
      <trkpt lat="49.01452" lon="7.77963">
        <ele>209.22</ele>
        <time>2021-07-20T18:23:44Z</time>
      </trkpt>
      <trkpt lat="49.01457" lon="7.77976">
        <ele>209.22</ele>
        <time>2021-07-20T18:23:45Z</time>
      </trkpt>
      <trkpt lat="49.0146" lon="7.77993">
        <ele>209.22</ele>
        <time>2021-07-20T18:23:46Z</time>
      </trkpt>
      <trkpt lat="49.01474" lon="7.78064">
        <ele>208.74</ele>
        <time>2021-07-20T18:23:50Z</time>
      </trkpt>
      <trkpt lat="49.01478" lon="7.78083">
        <ele>208.26</ele>
        <time>2021-07-20T18:23:51Z</time>
      </trkpt>
      <trkpt lat="49.01484" lon="7.78103">
        <ele>208.26</ele>
        <time>2021-07-20T18:23:52Z</time>
      </trkpt>
      <trkpt lat="49.01492" lon="7.7812">
        <ele>208.26</ele>
        <time>2021-07-20T18:23:53Z</time>
      </trkpt>
      <trkpt lat="49.01499" lon="7.78137">
        <ele>208.26</ele>
        <time>2021-07-20T18:23:54Z</time>
      </trkpt>
      <trkpt lat="49.01509" lon="7.7815">
        <ele>208.26</ele>
        <time>2021-07-20T18:23:55Z</time>
      </trkpt>
      <trkpt lat="49.01519" lon="7.78162">
        <ele>207.78</ele>
        <time>2021-07-20T18:23:56Z</time>
      </trkpt>
      <trkpt lat="49.01529" lon="7.78173">
        <ele>207.78</ele>
        <time>2021-07-20T18:23:57Z</time>
      </trkpt>
      <trkpt lat="49.01539" lon="7.78181">
        <ele>207.78</ele>
        <time>2021-07-20T18:23:58Z</time>
      </trkpt>
      <trkpt lat="49.01548" lon="7.78184">
        <ele>207.78</ele>
        <time>2021-07-20T18:23:59Z</time>
      </trkpt>
      <trkpt lat="49.01556" lon="7.78187">
        <ele>207.78</ele>
        <time>2021-07-20T18:24:00Z</time>
      </trkpt>
      <trkpt lat="49.01572" lon="7.78192">
        <ele>211.63</ele>
        <time>2021-07-20T18:24:06Z</time>
      </trkpt>
      <trkpt lat="49.01571" lon="7.78192">
        <ele>213.55</ele>
        <time>2021-07-20T18:24:18Z</time>
      </trkpt>
      <trkpt lat="49.01572" lon="7.78193">
        <ele>213.55</ele>
        <time>2021-07-20T18:24:19Z</time>
      </trkpt>
      <trkpt lat="49.01574" lon="7.78192">
        <ele>213.55</ele>
        <time>2021-07-20T18:24:20Z</time>
      </trkpt>
      <trkpt lat="49.01595" lon="7.78181">
        <ele>213.07</ele>
        <time>2021-07-20T18:24:28Z</time>
      </trkpt>
      <trkpt lat="49.01607" lon="7.78174">
        <ele>213.07</ele>
        <time>2021-07-20T18:24:29Z</time>
      </trkpt>
      <trkpt lat="49.01613" lon="7.78166">
        <ele>213.07</ele>
        <time>2021-07-20T18:24:30Z</time>
      </trkpt>
      <trkpt lat="49.01613" lon="7.78166">
        <ele>213.07</ele>
        <time>2021-07-20T18:24:31Z</time>
      </trkpt>
      <trkpt lat="49.0162" lon="7.78157">
        <ele>213.07</ele>
        <time>2021-07-20T18:24:32Z</time>
      </trkpt>
      <trkpt lat="49.01627" lon="7.78148">
        <ele>213.55</ele>
        <time>2021-07-20T18:24:33Z</time>
      </trkpt>
      <trkpt lat="49.01674" lon="7.78023">
        <ele>214.99</ele>
        <time>2021-07-20T18:24:41Z</time>
      </trkpt>
      <trkpt lat="49.01696" lon="7.77943">
        <ele>215.47</ele>
        <time>2021-07-20T18:24:45Z</time>
      </trkpt>
      <trkpt lat="49.01703" lon="7.77923">
        <ele>215.95</ele>
        <time>2021-07-20T18:24:46Z</time>
      </trkpt>
      <trkpt lat="49.01711" lon="7.77909">
        <ele>215.95</ele>
        <time>2021-07-20T18:24:47Z</time>
      </trkpt>
      <trkpt lat="49.01721" lon="7.77895">
        <ele>215.95</ele>
        <time>2021-07-20T18:24:48Z</time>
      </trkpt>
      <trkpt lat="49.01731" lon="7.77887">
        <ele>215.95</ele>
        <time>2021-07-20T18:24:49Z</time>
      </trkpt>
      <trkpt lat="49.01743" lon="7.77882">
        <ele>215.95</ele>
        <time>2021-07-20T18:24:50Z</time>
      </trkpt>
      <trkpt lat="49.01757" lon="7.77882">
        <ele>215.95</ele>
        <time>2021-07-20T18:24:51Z</time>
      </trkpt>
      <trkpt lat="49.01771" lon="7.77883">
        <ele>215.95</ele>
        <time>2021-07-20T18:24:52Z</time>
      </trkpt>
      <trkpt lat="49.01839" lon="7.77881">
        <ele>215.95</ele>
        <time>2021-07-20T18:24:57Z</time>
      </trkpt>
      <trkpt lat="49.01852" lon="7.77874">
        <ele>215.95</ele>
        <time>2021-07-20T18:24:58Z</time>
      </trkpt>
      <trkpt lat="49.01866" lon="7.77868">
        <ele>216.43</ele>
        <time>2021-07-20T18:24:59Z</time>
      </trkpt>
      <trkpt lat="49.01878" lon="7.77857">
        <ele>216.43</ele>
        <time>2021-07-20T18:25:00Z</time>
      </trkpt>
      <trkpt lat="49.01889" lon="7.77845">
        <ele>216.43</ele>
        <time>2021-07-20T18:25:01Z</time>
      </trkpt>
      <trkpt lat="49.01901" lon="7.77833">
        <ele>216.43</ele>
        <time>2021-07-20T18:25:02Z</time>
      </trkpt>
      <trkpt lat="49.01914" lon="7.77821">
        <ele>216.43</ele>
        <time>2021-07-20T18:25:03Z</time>
      </trkpt>
      <trkpt lat="49.01933" lon="7.77787">
        <ele>216.43</ele>
        <time>2021-07-20T18:25:04Z</time>
      </trkpt>
      <trkpt lat="49.01933" lon="7.77787">
        <ele>216.43</ele>
        <time>2021-07-20T18:25:05Z</time>
      </trkpt>
      <trkpt lat="49.01942" lon="7.7777">
        <ele>216.91</ele>
        <time>2021-07-20T18:25:06Z</time>
      </trkpt>
      <trkpt lat="49.02017" lon="7.77541">
        <ele>218.84</ele>
        <time>2021-07-20T18:25:17Z</time>
      </trkpt>
      <trkpt lat="49.02047" lon="7.77426">
        <ele>218.36</ele>
        <time>2021-07-20T18:25:22Z</time>
      </trkpt>
      <trkpt lat="49.02056" lon="7.77406">
        <ele>220.28</ele>
        <time>2021-07-20T18:25:23Z</time>
      </trkpt>
      <trkpt lat="49.02065" lon="7.77387">
        <ele>222.68</ele>
        <time>2021-07-20T18:25:24Z</time>
      </trkpt>
      <trkpt lat="49.02076" lon="7.7737">
        <ele>223.64</ele>
        <time>2021-07-20T18:25:25Z</time>
      </trkpt>
      <trkpt lat="49.02087" lon="7.77352">
        <ele>224.12</ele>
        <time>2021-07-20T18:25:26Z</time>
      </trkpt>
      <trkpt lat="49.02099" lon="7.77333">
        <ele>224.61</ele>
        <time>2021-07-20T18:25:27Z</time>
      </trkpt>
      <trkpt lat="49.02181" lon="7.77237">
        <ele>226.05</ele>
        <time>2021-07-20T18:25:33Z</time>
      </trkpt>
      <trkpt lat="49.02194" lon="7.77218">
        <ele>226.05</ele>
        <time>2021-07-20T18:25:34Z</time>
      </trkpt>
      <trkpt lat="49.02277" lon="7.77062">
        <ele>231.81</ele>
        <time>2021-07-20T18:25:42Z</time>
      </trkpt>
      <trkpt lat="49.02289" lon="7.77049">
        <ele>230.85</ele>
        <time>2021-07-20T18:25:43Z</time>
      </trkpt>
      <trkpt lat="49.02301" lon="7.77037">
        <ele>230.85</ele>
        <time>2021-07-20T18:25:44Z</time>
      </trkpt>
      <trkpt lat="49.02313" lon="7.77026">
        <ele>230.85</ele>
        <time>2021-07-20T18:25:45Z</time>
      </trkpt>
      <trkpt lat="49.02326" lon="7.7702">
        <ele>230.37</ele>
        <time>2021-07-20T18:25:46Z</time>
      </trkpt>
      <trkpt lat="49.0234" lon="7.77013">
        <ele>230.37</ele>
        <time>2021-07-20T18:25:47Z</time>
      </trkpt>
      <trkpt lat="49.02353" lon="7.77007">
        <ele>229.89</ele>
        <time>2021-07-20T18:25:48Z</time>
      </trkpt>
      <trkpt lat="49.02365" lon="7.77005">
        <ele>229.89</ele>
        <time>2021-07-20T18:25:49Z</time>
      </trkpt>
      <trkpt lat="49.02378" lon="7.77007">
        <ele>229.41</ele>
        <time>2021-07-20T18:25:50Z</time>
      </trkpt>
      <trkpt lat="49.0239" lon="7.77011">
        <ele>229.41</ele>
        <time>2021-07-20T18:25:51Z</time>
      </trkpt>
      <trkpt lat="49.02403" lon="7.77017">
        <ele>228.93</ele>
        <time>2021-07-20T18:25:52Z</time>
      </trkpt>
      <trkpt lat="49.0252" lon="7.77064">
        <ele>228.45</ele>
        <time>2021-07-20T18:26:01Z</time>
      </trkpt>
      <trkpt lat="49.02564" lon="7.77075">
        <ele>229.41</ele>
        <time>2021-07-20T18:26:05Z</time>
      </trkpt>
      <trkpt lat="49.02573" lon="7.77075">
        <ele>229.41</ele>
        <time>2021-07-20T18:26:06Z</time>
      </trkpt>
      <trkpt lat="49.02581" lon="7.77075">
        <ele>229.41</ele>
        <time>2021-07-20T18:26:07Z</time>
      </trkpt>
      <trkpt lat="49.02682" lon="7.77081">
        <ele>225.09</ele>
        <time>2021-07-20T18:26:17Z</time>
      </trkpt>
      <trkpt lat="49.02706" lon="7.77071">
        <ele>223.16</ele>
        <time>2021-07-20T18:26:19Z</time>
      </trkpt>
      <trkpt lat="49.02718" lon="7.77064">
        <ele>222.68</ele>
        <time>2021-07-20T18:26:20Z</time>
      </trkpt>
      <trkpt lat="49.0273" lon="7.77058">
        <ele>222.2</ele>
        <time>2021-07-20T18:26:21Z</time>
      </trkpt>
      <trkpt lat="49.02739" lon="7.77048">
        <ele>221.72</ele>
        <time>2021-07-20T18:26:22Z</time>
      </trkpt>
      <trkpt lat="49.02749" lon="7.77037">
        <ele>221.24</ele>
        <time>2021-07-20T18:26:23Z</time>
      </trkpt>
      <trkpt lat="49.02839" lon="7.76949">
        <ele>216.91</ele>
        <time>2021-07-20T18:26:31Z</time>
      </trkpt>
      <trkpt lat="49.02852" lon="7.76943">
        <ele>216.43</ele>
        <time>2021-07-20T18:26:32Z</time>
      </trkpt>
      <trkpt lat="49.02996" lon="7.76912">
        <ele>216.91</ele>
        <time>2021-07-20T18:26:42Z</time>
      </trkpt>
      <trkpt lat="49.03086" lon="7.76904">
        <ele>216.91</ele>
        <time>2021-07-20T18:26:50Z</time>
      </trkpt>
      <trkpt lat="49.03134" lon="7.76924">
        <ele>214.03</ele>
        <time>2021-07-20T18:26:58Z</time>
      </trkpt>
    </trkseg>
  </trk>
</gpx>